Ko Samui, Thaïlande

09:13 ICT le 28 août 2015 (GMT +0700)
SamuiWebCam.com @ The Jungle Club, Koh Samui, Thailand | | Change Station
CLOSE
Current Station
Stations météorologiques personnelles
Location: Thailand,
Altitude: 492 ft
Stations météo à proximité

Alt. 492 ft 9.50 °N, 100.05 °E | Updated 28 seconds ago

Light Rain
Pluie fine
77.5 ° F
Paraît 79 ° F
N
0.0
Vent Variable Vent de SO
Gusts 0.0 mph

Aujourd'hui
Haut(e) -- | Bas -- ° F
--% Risque de précip.
Hier
Haut(e) -- | Bas -- ° F
Precip. -- pouce
6:11 AM 6:31 PM
Lune gibbeuse croissante, 96% visible
Pression 29.89 pouce
Visibilité 4.3 Miles terrestres
Nuages Peu 2000 ft
Nuages épars 12000 ft
Nuageux 30000 ft
indice de chaleur 79 ° F
Point de rosée 75 ° F
Humidité 92%
Précipitations 0.07 pouce
Profondeur de la couche neigeuse Non disponible.
UV 1.0 sur 12
Pollen Non disponible.
Qualité de l'air Non disponible.
Flu Activity Non disponible.
METAR VTSM 280200Z 00000KT 7000 -RA FEW020CB SCT120 BKN300 27/25 Q1012 A2990 RETS
Pression 29.89 pouce
Visibilité 4.3 Miles terrestres
Nuages Peu 2000 ft
Nuages épars 12000 ft
Nuageux 30000 ft
indice de chaleur 79 ° F
Point de rosée 75 ° F
Humidité 92%
Précipitations 0.07 pouce
Profondeur de la couche neigeuse Non disponible.
UV 1.0 sur 12
Pollen Non disponible.
Qualité de l'air Non disponible.
Flu Activity Non disponible.
METAR VTSM 280200Z 00000KT 7000 -RA FEW020CB SCT120 BKN300 27/25 Q1012 A2990 RETS

10-Day Weather Forecast

×

Almanac

Astronomie

Aug. 28, 2015 Lever Coucher
Temps réel
Crépuscule civil
Crépuscule nautique
Crépuscule astronomique
Lune
Durée de lumière visible
Longueur du jour
Tomorrow will be .
, % of the Moon is Illuminated

Extrêmes aujourd'hui

Country Highs Country Lows

Community

WunderPhotos

Upload Photos

1,850,301 Photos téléchargées !

WunderBlogs® & News

Nearby

Qualité de l'air

  Qualité de l'air Indice de la qualité de l'air Polluant
Not available.

Épaisseur de neige

Station Depth Altitude

Activité sismique

Ville Distance Mag. Time & Date
Minimum magnitude displayed is 2.5.

Températures des eaux côtières

Lieu Température

Stations

Stations météo à proximité

Emplacement de la station Température Refroidissement éolien Point de rosée Humidité Vent Precip. Alt. Mise à jour Type